Time;durP1;ratioP1;P1;durP2;ratioP2;P2;SDS_P1;SDS_P2;PMS_P1;PMS_P2;Temp;Humidity;BMP_temperature;BMP_pressure;BME280_temperature;BME280_humidity;BME280_pressure;Samples;Min_cycle;Max_cycle;Signal;HPM_P1;HPM_P2
2022/11/20 00:01:15;;;;;;;39.25;17.33;;;-3.30;99.90;;;;;;5056133;28;20036;-79
2022/11/20 00:03:41;;;;;;;39.88;16.98;;;-3.30;99.90;;;;;;5051485;28;20531;-78
2022/11/20 00:06:09;;;;;;;38.97;17.08;;;-3.30;99.90;;;;;;5046981;28;20041;-80
2022/11/20 00:08:36;;;;;;;36.65;17.05;;;-3.40;99.90;;;;;;5055318;28;20082;-78
2022/11/20 00:11:13;;;;;;;36.72;17.27;;;-3.40;99.90;;;;;;5022623;28;20139;-80
2022/11/20 00:13:39;;;;;;;38.75;16.63;;;-3.50;99.90;;;;;;5053265;28;20032;-78
2022/11/20 00:16:07;;;;;;;34.15;15.98;;;-3.50;99.90;;;;;;5065514;28;20480;-78
2022/11/20 00:18:34;;;;;;;33.03;15.45;;;-3.50;99.90;;;;;;5077434;28;20147;-76
2022/11/20 00:21:10;;;;;;;32.20;15.00;;;-3.50;99.90;;;;;;5069869;28;20080;-79
2022/11/20 00:23:35;;;;;;;39.97;15.70;;;-3.50;99.90;;;;;;5060077;28;20075;-77
2022/11/20 00:26:09;;;;;;;34.17;15.52;;;-3.50;99.90;;;;;;5007196;28;20493;-80
2022/11/20 00:28:35;;;;;;;34.58;15.05;;;-3.50;99.90;;;;;;5072601;28;20044;-78
2022/11/20 00:31:06;;;;;;;35.05;15.23;;;-3.50;99.90;;;;;;5073670;28;20508;-79
2022/11/20 00:33:32;;;;;;;30.65;14.02;;;-3.40;99.90;;;;;;5034345;28;20044;-79
2022/11/20 00:36:06;;;;;;;35.08;14.00;;;-3.40;99.90;;;;;;5052766;28;20385;-79
2022/11/20 00:38:32;;;;;;;30.20;13.35;;;-3.40;99.90;;;;;;5050024;28;20128;-80
2022/11/20 00:41:00;;;;;;;33.10;14.80;;;-3.30;99.90;;;;;;5051563;28;20045;-81
2022/11/20 00:43:27;;;;;;;41.63;16.02;;;-3.30;99.90;;;;;;5054973;28;20068;-79
2022/11/20 00:46:07;;;;;;;39.88;15.80;;;-3.30;99.90;;;;;;5034645;28;20060;-80
2022/11/20 00:48:33;;;;;;;42.13;17.20;;;-3.20;99.90;;;;;;5045678;28;20546;-79
2022/11/20 00:50:59;;;;;;;36.58;16.55;;;-3.20;99.90;;;;;;5035317;28;20052;-79
2022/11/20 00:53:25;;;;;;;39.50;16.48;;;-3.10;99.90;;;;;;5052654;28;20080;-79
2022/11/20 00:56:00;;;;;;;40.53;17.42;;;-3.10;99.90;;;;;;5072521;28;20045;-79
2022/11/20 00:58:30;;;;;;;43.50;18.38;;;-3.00;99.90;;;;;;5071899;28;20028;-80
2022/11/20 01:01:11;;;;;;;37.83;17.15;;;-2.90;99.90;;;;;;5068094;28;20066;-81
2022/11/20 01:03:39;;;;;;;36.92;17.23;;;-2.90;99.90;;;;;;5052565;28;20522;-79
2022/11/20 01:06:29;;;;;;;38.17;17.15;;;-2.80;99.90;;;;;;5018117;28;20088;-80
2022/11/20 01:08:58;;;;;;;41.00;17.30;;;-2.80;99.90;;;;;;5032567;28;20057;-79
2022/11/20 01:11:30;;;;;;;42.75;17.52;;;-2.90;99.90;;;;;;5052867;28;20408;-81
2022/11/20 01:13:57;;;;;;;42.13;18.42;;;-2.80;99.90;;;;;;5018520;28;20059;-80
2022/11/20 01:16:36;;;;;;;;;;;-2.90;99.90;;;;;;5052443;28;20056;-80
2022/11/20 01:19:05;;;;;;;46.28;18.45;;;-2.90;99.90;;;;;;5066244;28;19920;-81
2022/11/20 01:21:36;;;;;;;41.92;18.40;;;-2.90;99.90;;;;;;5054204;28;20044;-80
2022/11/20 01:24:04;;;;;;;49.95;18.75;;;-2.90;99.90;;;;;;5065343;28;20084;-79
2022/11/20 01:26:37;;;;;;;46.08;18.63;;;-3.00;99.90;;;;;;5038336;28;20044;-79
2022/11/20 01:29:04;;;;;;;42.95;18.33;;;-3.00;99.90;;;;;;5070177;28;20389;-79
2022/11/20 01:31:35;;;;;;;43.85;18.05;;;-2.90;99.90;;;;;;5054707;28;20052;-79
2022/11/20 01:34:16;;;;;;;42.47;17.75;;;-2.90;99.90;;;;;;5075076;28;20055;-79
2022/11/20 01:36:42;;;;;;;39.95;16.92;;;-2.90;99.90;;;;;;5076278;28;20052;-80
2022/11/20 01:39:21;;;;;;;40.47;17.95;;;-2.80;99.90;;;;;;5074700;28;20045;-79
2022/11/20 01:44:59;;;;;;;43.42;17.67;;;-2.80;99.90;;;;;;5054782;28;20461;-80
2022/11/20 01:47:38;;;;;;;45.72;17.02;;;-2.70;99.90;;;;;;5061115;28;20048;-79
2022/11/20 01:50:21;;;;;;;41.08;17.17;;;-2.70;99.90;;;;;;5057687;28;20393;-79
2022/11/20 01:52:59;;;;;;;38.05;16.38;;;-2.60;99.90;;;;;;5072306;28;20048;-80
2022/11/20 01:55:37;;;;;;;42.38;16.90;;;-2.60;99.90;;;;;;5054424;28;20071;-80
2022/11/20 01:58:04;;;;;;;39.55;16.77;;;-2.70;99.90;;;;;;5071166;28;20143;-80
2022/11/20 02:00:30;;;;;;;43.08;18.65;;;-2.60;99.90;;;;;;5072941;28;20048;-80
2022/11/20 02:03:06;;;;;;;39.33;17.50;;;-2.60;99.90;;;;;;5043921;28;20106;-80
2022/11/20 02:05:32;;;;;;;44.03;19.37;;;-2.60;99.90;;;;;;5056087;28;20044;-80
2022/11/20 02:07:59;;;;;;;41.22;17.85;;;-2.60;99.90;;;;;;5073489;28;20743;-80
2022/11/20 02:10:27;;;;;;;39.42;16.88;;;-2.60;99.90;;;;;;5060388;28;20040;-80
2022/11/20 02:15:38;;;;;;;42.97;16.65;;;-2.50;99.90;;;;;;5061076;28;20049;-80
2022/11/20 02:18:06;;;;;;;39.75;17.45;;;-2.50;99.90;;;;;;5048829;28;20452;-81
2022/11/20 02:20:32;;;;;;;38.90;16.95;;;-2.50;99.90;;;;;;5063435;28;20067;-80
2022/11/20 02:23:04;;;;;;;36.67;16.08;;;-2.60;99.90;;;;;;5062756;28;20044;-80
2022/11/20 02:25:32;;;;;;;43.33;19.75;;;-2.60;99.90;;;;;;5078979;28;20124;-81
2022/11/20 02:27:58;;;;;;;39.55;18.40;;;-2.50;99.90;;;;;;5075788;28;20048;-80
2022/11/20 02:30:23;;;;;;;39.60;17.85;;;-2.50;99.90;;;;;;5041298;28;20389;-80
2022/11/20 02:32:49;;;;;;;34.83;16.98;;;-2.50;99.90;;;;;;5058751;28;20338;-80
2022/11/20 02:35:18;;;;;;;35.42;16.25;;;-2.40;99.90;;;;;;5066915;28;20052;-81
2022/11/20 02:37:47;;;;;;;30.77;13.95;;;-2.40;99.90;;;;;;5059969;28;20047;-81
2022/11/20 02:40:13;;;;;;;28.98;13.70;;;-2.40;99.90;;;;;;5027674;28;20127;-81
2022/11/20 02:42:39;;;;;;;31.67;13.20;;;-2.30;99.90;;;;;;5075915;28;20047;-81
2022/11/20 02:45:06;;;;;;;26.08;13.25;;;-2.30;99.90;;;;;;5059546;28;20049;-80
2022/11/20 02:47:32;;;;;;;27.13;12.90;;;-2.20;99.90;;;;;;5056350;28;20123;-82
2022/11/20 02:49:58;;;;;;;30.60;13.60;;;-2.10;99.90;;;;;;5058769;28;20044;-80
2022/11/20 02:52:24;;;;;;;32.08;12.48;;;-2.10;99.90;;;;;;5077375;28;20127;-81
2022/11/20 02:54:50;;;;;;;28.67;12.30;;;-2.10;99.90;;;;;;5059377;28;20144;-81
2022/11/20 02:57:15;;;;;;;29.83;12.82;;;-2.00;99.90;;;;;;5075981;28;20127;-81
2022/11/20 02:59:41;;;;;;;29.08;13.82;;;-2.00;99.90;;;;;;5058217;28;20546;-81
2022/11/20 03:02:07;;;;;;;32.35;13.70;;;-2.00;99.90;;;;;;5059116;28;20408;-81
2022/11/20 03:04:33;;;;;;;30.60;13.65;;;-2.00;99.90;;;;;;5056298;28;20080;-82
2022/11/20 03:06:59;;;;;;;32.38;14.68;;;-1.90;99.90;;;;;;5058553;28;20049;-81
2022/11/20 03:09:24;;;;;;;33.35;14.20;;;-1.90;99.90;;;;;;5079105;28;20048;-82
2022/11/20 03:11:50;;;;;;;32.55;14.55;;;-1.90;99.90;;;;;;5067294;28;20051;-81
2022/11/20 03:14:16;;;;;;;32.47;13.57;;;-1.90;99.90;;;;;;5054594;28;20048;-81
2022/11/20 03:16:42;;;;;;;31.13;13.65;;;-2.00;99.90;;;;;;5069641;28;20041;-80
2022/11/20 03:19:07;;;;;;;28.30;12.70;;;-1.90;99.90;;;;;;5079819;28;20052;-82
2022/11/20 03:21:34;;;;;;;32.33;12.73;;;-1.90;99.90;;;;;;5060536;28;20202;-80
2022/11/20 03:24:00;;;;;;;34.05;13.70;;;-1.90;99.90;;;;;;5072028;28;20111;-81
2022/11/20 03:26:27;;;;;;;29.05;13.63;;;-1.90;99.90;;;;;;5057880;28;20130;-82
2022/11/20 03:28:55;;;;;;;30.23;13.43;;;-1.90;99.90;;;;;;5053662;28;20136;-81
2022/11/20 03:31:25;;;;;;;33.15;13.02;;;-1.80;99.90;;;;;;5073832;28;20299;-81
2022/11/20 03:33:51;;;;;;;32.30;13.77;;;-1.80;99.90;;;;;;5054811;28;20121;-81
2022/11/20 03:36:18;;;;;;;31.02;13.38;;;-1.80;99.90;;;;;;5056088;28;20056;-81
2022/11/20 03:38:44;;;;;;;26.45;12.35;;;-1.80;99.90;;;;;;5048824;28;20056;-82
2022/11/20 03:41:18;;;;;;;32.03;14.73;;;-1.80;99.90;;;;;;5035751;28;20053;-82
2022/11/20 03:43:57;;;;;;;30.77;13.15;;;-1.80;99.90;;;;;;5045224;28;20044;-81
2022/11/20 03:46:24;;;;;;;33.38;13.07;;;-1.80;99.90;;;;;;5056332;28;20452;-82
2022/11/20 03:48:50;;;;;;;32.47;13.98;;;-1.80;99.90;;;;;;5034006;28;20556;-82
2022/11/20 03:51:27;;;;;;;29.02;14.13;;;-1.70;99.90;;;;;;5019027;28;20477;-82
2022/11/20 03:53:55;;;;;;;29.30;13.10;;;-1.80;99.90;;;;;;5051700;28;20531;-81
2022/11/20 03:56:24;;;;;;;29.48;14.18;;;-1.80;99.90;;;;;;5047149;28;20052;-80
2022/11/20 03:58:50;;;;;;;29.23;12.60;;;-1.90;99.90;;;;;;5070856;28;20048;-82
2022/11/20 04:01:23;;;;;;;27.27;12.65;;;-1.90;99.90;;;;;;5071232;28;20101;-81
2022/11/20 04:03:52;;;;;;;28.75;12.23;;;-1.80;99.90;;;;;;5071492;28;20076;-81
2022/11/20 04:06:37;;;;;;;26.85;12.07;;;-2.00;99.90;;;;;;5073059;28;20064;-81
2022/11/20 04:09:04;;;;;;;30.88;12.57;;;-1.80;99.90;;;;;;5072186;28;20490;-82
2022/11/20 04:11:32;;;;;;;29.70;12.80;;;-1.80;99.90;;;;;;5073042;28;20049;-82
2022/11/20 04:14:04;;;;;;;30.77;13.07;;;-1.80;99.90;;;;;;5055889;28;20055;-81
2022/11/20 04:16:32;;;;;;;29.23;12.38;;;-1.80;99.90;;;;;;5035652;28;20045;-82
2022/11/20 04:18:59;;;;;;;29.88;12.82;;;-1.80;99.90;;;;;;5051731;28;20052;-83
2022/11/20 04:21:26;;;;;;;31.75;13.60;;;-1.80;99.90;;;;;;5055047;28;20048;-82
2022/11/20 04:23:55;;;;;;;29.70;13.52;;;-1.80;99.90;;;;;;5033305;28;20044;-83
2022/11/20 04:26:23;;;;;;;32.05;13.30;;;-1.90;99.90;;;;;;5018701;28;20059;-82
2022/11/20 04:28:49;;;;;;;26.65;11.90;;;-1.90;99.90;;;;;;5051441;28;20083;-81
2022/11/20 04:31:18;;;;;;;27.90;12.93;;;-1.90;99.90;;;;;;5034941;28;20075;-82
2022/11/20 04:33:44;;;;;;;25.20;12.18;;;-1.80;99.90;;;;;;5033450;28;20055;-82
2022/11/20 04:36:18;;;;;;;32.15;13.27;;;-1.90;99.90;;;;;;5049629;28;20045;-82
2022/11/20 04:38:45;;;;;;;28.35;12.35;;;-1.90;99.90;;;;;;5053051;28;20040;-82
2022/11/20 04:41:19;;;;;;;28.25;11.98;;;-1.90;99.90;;;;;;5052975;28;20103;-83
2022/11/20 04:43:49;;;;;;;23.92;11.73;;;-1.90;99.90;;;;;;5051483;28;20532;-81
2022/11/20 04:46:17;;;;;;;26.63;12.10;;;-1.80;99.90;;;;;;5035838;28;20044;-81
2022/11/20 04:48:42;;;;;;;29.42;12.85;;;-1.80;99.90;;;;;;5051785;28;20094;-82
2022/11/20 04:51:08;;;;;;;28.83;12.88;;;-1.80;99.90;;;;;;5032104;28;20049;-83
2022/11/20 04:53:34;;;;;;;29.52;12.75;;;-1.80;99.90;;;;;;5064445;28;20513;-82
2022/11/20 04:56:06;;;;;;;26.50;12.43;;;-1.70;99.90;;;;;;5054223;28;20059;-83
2022/11/20 04:58:32;;;;;;;24.35;11.52;;;-1.80;99.90;;;;;;5070085;28;20067;-82
2022/11/20 05:01:13;;;;;;;26.30;11.63;;;-1.80;99.90;;;;;;5052709;28;20063;-82
2022/11/20 05:03:40;;;;;;;29.40;12.55;;;-1.80;99.90;;;;;;5036437;28;20126;-81
2022/11/20 05:06:06;;;;;;;26.13;11.43;;;-1.70;99.90;;;;;;5072060;28;20055;-82
2022/11/20 05:08:33;;;;;;;23.67;10.80;;;-1.70;99.90;;;;;;5020881;28;20048;-82
2022/11/20 05:11:04;;;;;;;27.38;11.18;;;-1.80;99.90;;;;;;5071422;28;20425;-82
2022/11/20 05:13:30;;;;;;;26.35;10.98;;;-1.70;99.90;;;;;;5054348;28;20137;-82
2022/11/20 05:16:01;;;;;;;24.42;11.05;;;-1.70;99.90;;;;;;5073572;28;20094;-83
2022/11/20 05:18:27;;;;;;;24.55;11.27;;;-1.70;99.90;;;;;;5036883;28;20090;-82
2022/11/20 05:20:59;;;;;;;24.42;11.20;;;-1.60;99.90;;;;;;5033004;28;20110;-82
2022/11/20 05:23:25;;;;;;;26.30;10.90;;;-1.60;99.90;;;;;;5035357;28;20070;-82
2022/11/20 05:25:55;;;;;;;27.45;11.85;;;-1.60;99.90;;;;;;5038590;28;20091;-80
2022/11/20 05:28:21;;;;;;;25.60;11.40;;;-1.60;99.90;;;;;;5047555;28;20432;-82
2022/11/20 05:30:47;;;;;;;28.08;11.63;;;-1.60;99.90;;;;;;5056545;28;20087;-82
2022/11/20 05:33:13;;;;;;;24.65;11.05;;;-1.50;99.90;;;;;;5038147;28;20408;-82
2022/11/20 05:35:39;;;;;;;25.90;11.27;;;-1.50;99.90;;;;;;5053796;28;20049;-82
2022/11/20 05:38:04;;;;;;;27.67;11.57;;;-1.50;99.90;;;;;;5067401;28;20515;-81
2022/11/20 05:40:30;;;;;;;28.38;11.82;;;-1.50;99.90;;;;;;5071376;28;20052;-82
2022/11/20 05:42:56;;;;;;;26.90;11.18;;;-1.50;99.90;;;;;;5051881;28;20094;-83
2022/11/20 05:45:21;;;;;;;24.63;10.73;;;-1.50;99.90;;;;;;5070456;28;20048;-82
2022/11/20 05:47:47;;;;;;;24.15;10.35;;;-1.40;99.90;;;;;;5052314;28;20048;-81
2022/11/20 05:50:14;;;;;;;29.08;11.80;;;-1.40;99.90;;;;;;5053960;28;20059;-82
2022/11/20 05:52:40;;;;;;;26.88;11.32;;;-1.50;99.90;;;;;;5053414;28;20068;-82
2022/11/20 05:55:06;;;;;;;28.27;11.60;;;-1.50;99.90;;;;;;5036961;28;20158;-83
2022/11/20 05:57:32;;;;;;;25.30;10.20;;;-1.50;99.90;;;;;;5073946;28;20067;-81
2022/11/20 05:59:58;;;;;;;24.02;10.48;;;-1.50;99.90;;;;;;5047559;28;20056;-81
2022/11/20 06:02:24;;;;;;;26.92;11.43;;;-1.40;99.90;;;;;;5074524;28;20045;-81
2022/11/20 06:04:49;;;;;;;30.77;13.55;;;-1.40;99.90;;;;;;5062460;28;20051;-82
2022/11/20 06:07:15;;;;;;;25.52;11.25;;;-1.40;99.90;;;;;;5054393;28;20181;-82
2022/11/20 06:09:41;;;;;;;27.92;11.98;;;-1.40;99.90;;;;;;5053896;28;20052;-83
2022/11/20 06:12:07;;;;;;;25.90;11.68;;;-1.40;99.90;;;;;;5062181;28;20060;-83
2022/11/20 06:14:33;;;;;;;26.60;11.85;;;-1.40;99.90;;;;;;5050919;28;20067;-84
2022/11/20 06:16:59;;;;;;;26.00;11.73;;;-1.40;99.90;;;;;;5052370;28;20135;-82
2022/11/20 06:19:24;;;;;;;26.13;11.10;;;-1.40;99.90;;;;;;5052094;28;20556;-82
2022/11/20 06:21:50;;;;;;;27.45;11.43;;;-1.30;99.90;;;;;;5069348;28;20080;-82
2022/11/20 06:24:17;;;;;;;27.80;11.25;;;-1.30;99.90;;;;;;5071009;28;20123;-85
2022/11/20 06:26:43;;;;;;;26.63;12.30;;;-1.30;99.90;;;;;;5069437;28;20049;-84
2022/11/20 06:29:09;;;;;;;29.45;11.43;;;-1.30;99.90;;;;;;5040139;28;20148;-82
2022/11/20 06:31:37;;;;;;;25.45;10.98;;;-1.30;99.90;;;;;;5068450;28;20162;-81
2022/11/20 06:34:05;;;;;;;26.30;11.52;;;-1.40;99.90;;;;;;5052545;28;20124;-80
2022/11/20 06:36:31;;;;;;;27.17;11.52;;;-1.40;99.90;;;;;;5035701;28;20057;-80
2022/11/20 06:38:56;;;;;;;27.80;11.55;;;-1.50;99.90;;;;;;5044844;28;20049;-81
2022/11/20 06:41:22;;;;;;;25.98;11.13;;;-1.50;99.90;;;;;;5070670;28;20044;-81
2022/11/20 06:43:49;;;;;;;24.58;10.13;;;-1.50;99.90;;;;;;5036141;28;20045;-83
2022/11/20 06:46:19;;;;;;;23.17;11.20;;;-1.40;99.90;;;;;;5074687;28;20083;-85
2022/11/20 06:48:46;;;;;;;26.65;11.57;;;-1.40;99.90;;;;;;5055391;28;20057;-81
2022/11/20 06:51:12;;;;;;;25.80;10.27;;;-1.40;99.90;;;;;;5040874;28;20060;-83
2022/11/20 06:53:38;;;;;;;22.40;9.75;;;-1.40;99.90;;;;;;5079931;28;20071;-82
2022/11/20 06:56:05;;;;;;;23.15;10.27;;;-1.40;99.90;;;;;;5059763;28;20040;-81
2022/11/20 06:58:32;;;;;;;23.08;10.65;;;-1.30;99.90;;;;;;5042832;28;20393;-82
2022/11/20 07:01:01;;;;;;;;;;;-1.30;99.90;;;;;;5037035;28;20057;-81
2022/11/20 07:03:27;;;;;;;20.67;9.00;;;-1.20;99.90;;;;;;5073002;28;19925;-82
2022/11/20 07:05:57;;;;;;;23.88;9.88;;;-1.20;99.90;;;;;;5056060;28;20378;-80
2022/11/20 07:08:24;;;;;;;23.10;9.63;;;-1.10;99.90;;;;;;5072764;28;20173;-82
2022/11/20 07:10:50;;;;;;;21.52;9.95;;;-1.20;99.90;;;;;;5040590;28;20064;-82
2022/11/20 07:13:16;;;;;;;23.67;9.63;;;-1.20;99.90;;;;;;5067346;28;20067;-81
2022/11/20 07:15:41;;;;;;;21.27;9.93;;;-1.20;99.90;;;;;;5074342;28;20135;-79
2022/11/20 07:18:07;;;;;;;22.48;9.40;;;-1.20;99.90;;;;;;5055439;28;20045;-81
2022/11/20 07:20:33;;;;;;;25.83;10.88;;;-1.10;99.90;;;;;;5053926;28;20373;-80
2022/11/20 07:22:59;;;;;;;23.20;10.95;;;-1.20;99.90;;;;;;5073282;28;20051;-81
2022/11/20 07:25:28;;;;;;;22.10;9.93;;;-1.30;99.90;;;;;;5074640;28;20191;-80
2022/11/20 07:28:00;;;;;;;26.83;10.60;;;-1.20;99.90;;;;;;5072185;28;20465;-79
2022/11/20 07:30:28;;;;;;;22.70;10.15;;;-1.20;99.90;;;;;;5041347;28;20467;-81
2022/11/20 07:32:57;;;;;;;25.75;9.80;;;-1.10;99.90;;;;;;5074102;28;20055;-81
2022/11/20 07:35:24;;;;;;;23.02;10.38;;;-1.10;99.90;;;;;;5057528;28;20045;-80
2022/11/20 07:37:50;;;;;;;23.98;9.85;;;-1.10;99.90;;;;;;5045125;28;20041;-81
2022/11/20 07:40:16;;;;;;;23.50;10.40;;;-1.10;99.90;;;;;;5058311;28;20500;-81
2022/11/20 07:42:49;;;;;;;25.70;10.55;;;-1.00;99.90;;;;;;5054212;28;20063;-81
2022/11/20 07:45:16;;;;;;;22.90;10.15;;;-1.00;99.90;;;;;;5080112;28;20036;-82
2022/11/20 07:47:42;;;;;;;23.65;9.90;;;-0.90;99.90;;;;;;5056476;28;20051;-81
2022/11/20 07:50:36;;;;;;;23.50;10.13;;;-0.90;99.90;;;;;;5039690;28;20040;-82
2022/11/20 07:53:26;;;;;;;24.63;10.07;;;-0.90;99.90;;;;;;5062365;28;20049;-80
2022/11/20 07:56:02;;;;;;;26.85;9.85;;;-0.90;99.90;;;;;;5025898;28;20037;-81
2022/11/20 07:59:16;;;;;;;25.33;11.17;;;-0.90;99.90;;;;;;5039519;28;20060;-82
2022/11/20 08:05:34;;;;;;;27.50;10.55;;;-0.70;99.90;;;;;;4998469;28;20057;-71
2022/11/20 08:08:00;;;;;;;22.40;9.90;;;-0.60;99.90;;;;;;5049227;28;20501;-74
2022/11/20 08:10:26;;;;;;;24.10;11.25;;;-0.60;99.90;;;;;;5047939;28;20124;-73
2022/11/20 08:15:39;;;;;;;25.40;11.15;;;-0.60;99.90;;;;;;5049198;28;20055;-73
2022/11/20 08:18:12;;;;;;;26.70;10.90;;;-0.50;99.90;;;;;;5015964;28;20052;-74
2022/11/20 08:20:47;;;;;;;24.73;10.50;;;-0.50;99.90;;;;;;5049909;28;20056;-74
2022/11/20 08:23:13;;;;;;;25.55;11.23;;;-0.40;99.90;;;;;;5048335;28;20053;-74
2022/11/20 08:25:39;;;;;;;25.40;10.77;;;-0.40;99.90;;;;;;5022493;28;20060;-75
2022/11/20 08:28:07;;;;;;;28.10;11.98;;;-0.30;99.90;;;;;;5032201;28;20489;-74
2022/11/20 08:30:34;;;;;;;26.40;10.93;;;-0.30;99.90;;;;;;5056848;28;20068;-75
2022/11/20 08:33:07;;;;;;;37.15;19.20;;;-0.30;99.90;;;;;;5056728;28;20492;-75
2022/11/20 08:35:38;;;;;;;33.95;15.65;;;-0.20;99.90;;;;;;5074656;28;20102;-75
2022/11/20 08:38:08;;;;;;;29.92;12.30;;;-0.20;99.90;;;;;;5071921;28;20100;-76
2022/11/20 08:40:34;;;;;;;25.35;12.93;;;-0.20;99.90;;;;;;5053439;28;20102;-74
2022/11/20 08:43:01;;;;;;;31.92;15.38;;;-0.20;99.90;;;;;;5040873;28;20489;-74
2022/11/20 08:45:27;;;;;;;27.67;13.43;;;-0.10;99.90;;;;;;5075805;28;20044;-74
2022/11/20 08:47:53;;;;;;;22.45;11.18;;;0.00;99.90;;;;;;5060528;28;20082;-75
2022/11/20 08:50:21;;;;;;;25.77;11.95;;;0.00;99.90;;;;;;5063482;28;20071;-74
2022/11/20 08:52:53;;;;;;;24.33;11.38;;;-0.10;99.90;;;;;;5080122;28;20040;-73
2022/11/20 08:55:19;;;;;;;25.08;11.23;;;-0.10;99.90;;;;;;5055024;28;20132;-74
2022/11/20 08:57:44;;;;;;;28.55;11.48;;;-0.20;99.90;;;;;;5040236;28;20446;-74
2022/11/20 09:00:11;;;;;;;25.00;10.90;;;-0.20;99.90;;;;;;5072498;28;20044;-74
2022/11/20 09:02:37;;;;;;;25.45;10.23;;;-0.20;99.90;;;;;;5009401;28;20045;-74
2022/11/20 09:05:03;;;;;;;26.08;10.95;;;-0.20;99.90;;;;;;5073198;28;20048;-74
2022/11/20 09:07:30;;;;;;;26.45;10.20;;;-0.30;99.90;;;;;;5056824;28;20527;-74
2022/11/20 09:10:05;;;;;;;26.95;11.35;;;-0.40;99.90;;;;;;5056487;28;20454;-75
2022/11/20 09:12:31;;;;;;;27.35;12.18;;;-0.40;99.90;;;;;;5066058;28;20090;-74
2022/11/20 09:14:56;;;;;;;26.52;11.73;;;-0.40;99.90;;;;;;5032932;28;20049;-76
2022/11/20 09:17:22;;;;;;;24.88;11.60;;;-0.50;99.90;;;;;;5037461;28;20044;-76
2022/11/20 09:19:48;;;;;;;26.67;10.95;;;-0.40;99.90;;;;;;5064070;28;20045;-75
2022/11/20 09:22:19;;;;;;;25.25;11.50;;;-0.40;99.90;;;;;;5054127;28;20045;-75
2022/11/20 09:24:45;;;;;;;27.80;11.85;;;-0.50;99.90;;;;;;5072158;28;20411;-73
2022/11/20 09:27:11;;;;;;;24.88;10.80;;;-0.40;99.90;;;;;;5051317;28;20052;-75
2022/11/20 09:29:37;;;;;;;24.05;10.90;;;-0.40;99.90;;;;;;5031870;28;20052;-74
2022/11/20 09:32:03;;;;;;;25.45;11.45;;;-0.30;99.90;;;;;;5037400;28;20052;-75
2022/11/20 09:34:28;;;;;;;28.02;11.38;;;-0.30;99.90;;;;;;5039871;28;20036;-75
2022/11/20 09:36:54;;;;;;;23.45;10.60;;;-0.20;99.90;;;;;;5069735;28;20052;-76
2022/11/20 09:39:20;;;;;;;26.67;10.85;;;-0.30;99.90;;;;;;5064424;28;20040;-76
2022/11/20 09:42:04;;;;;;;22.83;10.52;;;-0.20;99.90;;;;;;5026880;28;20056;-75
2022/11/20 09:44:54;;;;;;;22.90;9.70;;;-0.20;99.90;;;;;;5072324;28;20611;-76
2022/11/20 09:47:41;;;;;;;25.48;10.50;;;-0.20;99.90;;;;;;5021069;28;20112;-75
2022/11/20 09:50:32;;;;;;;23.17;11.10;;;-0.10;99.90;;;;;;5062021;28;20052;-74
2022/11/20 09:53:25;;;;;;;24.05;10.50;;;-0.10;99.90;;;;;;5050580;28;20057;-77
2022/11/20 09:55:51;;;;;;;23.23;10.73;;;0.00;99.90;;;;;;5052030;28;20044;-80
2022/11/20 09:58:41;;;;;;;23.67;10.20;;;0.00;99.90;;;;;;5065892;28;20378;-80
2022/11/20 10:01:16;;;;;;;23.63;10.50;;;0.10;99.90;;;;;;5048195;28;20501;-81
2022/11/20 10:04:06;;;;;;;22.65;9.93;;;0.10;99.90;;;;;;5044973;28;20080;-83
2022/11/20 10:06:49;;;;;;;23.65;9.68;;;0.20;99.90;;;;;;5079918;28;20096;-83
2022/11/20 10:09:37;;;;;;;22.42;9.55;;;0.30;99.90;;;;;;5081138;28;20048;-81
2022/11/20 10:12:28;;;;;;;19.60;9.07;;;0.30;99.90;;;;;;5081238;28;20083;-83
2022/11/20 10:15:10;;;;;;;22.23;9.43;;;0.40;99.90;;;;;;5087482;28;20043;-81
2022/11/20 10:17:44;;;;;;;23.25;9.25;;;0.50;99.90;;;;;;5093311;28;20056;-80
2022/11/20 10:20:19;;;;;;;20.88;8.98;;;0.50;99.90;;;;;;5093205;28;20151;-83
2022/11/20 10:22:54;;;;;;;20.60;8.50;;;0.60;99.90;;;;;;5089736;28;20071;-83
2022/11/20 10:25:24;;;;;;;18.25;8.70;;;0.60;99.90;;;;;;5087016;28;20071;-82
2022/11/20 10:28:03;;;;;;;21.45;8.80;;;0.70;99.90;;;;;;5055858;28;20473;-83
2022/11/20 10:30:30;;;;;;;21.55;9.68;;;0.70;99.90;;;;;;5046253;28;20120;-83
2022/11/20 10:33:23;;;;;;;22.67;10.23;;;0.70;99.90;;;;;;5048835;28;20053;-83
2022/11/20 10:36:08;;;;;;;24.65;9.95;;;0.80;99.90;;;;;;5024953;28;20064;-82
2022/11/20 10:38:43;;;;;;;24.33;9.73;;;0.80;99.90;;;;;;5068510;28;20052;-84
2022/11/20 10:41:24;;;;;;;20.58;9.88;;;1.00;99.90;;;;;;5071421;28;20502;-85
2022/11/20 10:44:04;;;;;;;21.13;9.77;;;1.00;99.90;;;;;;5086949;28;20044;-83
2022/11/20 10:46:44;;;;;;;20.08;9.02;;;1.10;99.90;;;;;;5070848;28;20057;-84
2022/11/20 10:49:18;;;;;;;22.63;9.38;;;1.20;99.90;;;;;;5043791;28;20555;-76
2022/11/20 10:52:10;;;;;;;21.48;9.00;;;1.20;99.90;;;;;;5053391;28;20076;-76
2022/11/20 10:54:43;;;;;;;17.63;7.50;;;1.50;99.90;;;;;;5071081;28;20067;-76
2022/11/20 10:57:35;;;;;;;18.17;8.82;;;1.60;99.90;;;;;;5055643;28;20051;-75
2022/11/20 11:00:06;;;;;;;20.60;8.23;;;1.60;99.90;;;;;;5054190;28;20115;-76
2022/11/20 11:02:45;;;;;;;19.35;8.35;;;1.70;99.90;;;;;;5066021;28;20049;-75
2022/11/20 11:05:44;;;;;;;20.23;8.93;;;1.90;99.90;;;;;;5054613;28;20084;-74
2022/11/20 11:08:14;;;;;;;18.27;8.57;;;1.90;99.90;;;;;;5057273;28;20127;-75
2022/11/20 11:11:05;;;;;;;16.52;7.93;;;2.00;99.90;;;;;;5070864;28;20057;-74
2022/11/20 11:13:31;;;;;;;17.92;8.15;;;2.10;99.90;;;;;;5063153;28;20087;-77
2022/11/20 11:15:57;;;;;;;22.02;9.88;;;2.20;99.90;;;;;;5060850;28;20048;-76
2022/11/20 11:18:31;;;;;;;24.25;11.88;;;2.30;99.90;;;;;;5049070;28;20044;-77
2022/11/20 11:20:59;;;;;;;16.70;7.43;;;2.30;99.90;;;;;;5076650;28;20052;-75
2022/11/20 11:23:42;;;;;;;15.88;7.32;;;2.30;99.90;;;;;;5078431;28;20044;-76
2022/11/20 11:26:24;;;;;;;18.88;8.25;;;2.40;99.90;;;;;;5062195;28;20127;-75
2022/11/20 11:29:00;;;;;;;17.33;7.95;;;2.40;99.90;;;;;;5043271;28;20048;-75
2022/11/20 11:31:32;;;;;;;22.95;9.05;;;2.40;99.90;;;;;;5079494;28;20056;-74
2022/11/20 11:34:24;;;;;;;21.55;8.57;;;2.50;99.90;;;;;;5076155;28;20048;-74
2022/11/20 11:36:57;;;;;;;19.98;8.50;;;2.60;99.90;;;;;;5053298;28;20504;-75
2022/11/20 11:39:24;;;;;;;17.42;8.45;;;2.60;99.90;;;;;;5043557;28;20047;-75
2022/11/20 11:41:51;;;;;;;21.65;9.52;;;2.50;99.90;;;;;;5056718;28;20071;-70
2022/11/20 11:47:36;;;;;;;21.80;8.95;;;2.60;99.90;;;;;;5078659;28;20048;-74
2022/11/20 11:50:08;;;;;;;25.48;10.55;;;2.70;99.90;;;;;;5075841;28;20129;-75
2022/11/20 11:52:56;;;;;;;23.10;10.95;;;2.70;99.90;;;;;;5075037;28;20052;-75
2022/11/20 11:55:27;;;;;;;22.35;10.32;;;2.70;99.90;;;;;;5074363;28;20175;-75
2022/11/20 11:58:03;;;;;;;22.08;9.90;;;2.70;99.90;;;;;;5069538;28;20127;-75
2022/11/20 12:00:29;;;;;;;23.47;10.03;;;2.70;99.90;;;;;;5055503;28;20033;-74
2022/11/20 12:03:27;;;;;;;24.08;10.05;;;2.80;99.90;;;;;;5070645;28;20100;-75
2022/11/20 12:06:05;;;;;;;27.15;13.95;;;2.70;99.90;;;;;;5071711;28;21517;-74
2022/11/20 12:08:44;;;;;;;21.02;9.82;;;2.60;99.90;;;;;;5067222;28;20102;-74
2022/11/20 12:11:17;;;;;;;22.52;9.57;;;2.60;99.90;;;;;;5067772;28;20049;-73
2022/11/20 12:13:53;;;;;;;23.17;9.98;;;2.60;99.90;;;;;;5071434;28;20036;-74
2022/11/20 12:16:20;;;;;;;22.23;10.00;;;2.70;99.90;;;;;;5068180;28;20127;-73
2022/11/20 12:18:49;;;;;;;;;;;2.60;99.90;;;;;;5065590;28;20041;-73
2022/11/20 12:21:41;;;;;;;19.35;9.57;;;2.70;99.90;;;;;;5059387;28;19924;-73
2022/11/20 12:24:29;;;;;;;21.73;9.68;;;2.60;99.90;;;;;;5072595;28;20040;-72
2022/11/20 12:27:13;;;;;;;21.08;9.52;;;2.60;99.90;;;;;;5039148;28;20465;-73
2022/11/20 12:30:01;;;;;;;22.20;9.50;;;2.50;99.90;;;;;;5051209;28;20052;-74
2022/11/20 12:32:47;;;;;;;23.50;10.23;;;2.50;99.90;;;;;;5073181;28;20083;-75
2022/11/20 12:35:22;;;;;;;20.08;9.63;;;2.50;99.90;;;;;;5075805;28;20188;-75
2022/11/20 12:38:12;;;;;;;20.25;9.15;;;2.60;99.90;;;;;;5057585;28;20048;-76
2022/11/20 12:41:02;;;;;;;18.83;7.97;;;2.60;99.90;;;;;;5073280;28;20048;-74
2022/11/20 12:47:12;;;;;;;20.90;9.13;;;2.70;99.90;;;;;;5059041;28;20052;-74
2022/11/20 12:50:02;;;;;;;19.33;8.73;;;2.70;99.90;;;;;;4977940;28;20058;-74
2022/11/20 12:52:35;;;;;;;23.88;11.70;;;2.70;99.90;;;;;;5061130;28;20037;-75
2022/11/20 12:55:27;;;;;;;20.00;9.68;;;2.70;99.90;;;;;;5072472;28;20371;-76
2022/11/20 12:58:11;;;;;;;20.45;8.93;;;2.70;99.90;;;;;;5023944;28;20140;-75
2022/11/20 13:00:42;;;;;;;18.50;8.68;;;2.70;99.90;;;;;;5033938;28;21373;-73
2022/11/20 13:03:20;;;;;;;22.77;9.75;;;2.80;99.90;;;;;;5028931;28;20099;-74
2022/11/20 13:05:56;;;;;;;27.73;13.55;;;2.80;99.90;;;;;;5030033;28;20574;-74
2022/11/20 13:08:35;;;;;;;25.60;13.40;;;2.90;99.90;;;;;;5024884;28;20061;-75
2022/11/20 13:11:39;;;;;;;26.58;12.15;;;2.90;99.90;;;;;;5024974;28;20060;-71
2022/11/20 13:14:21;;;;;;;29.80;14.25;;;3.00;99.90;;;;;;5041136;28;20516;-74